Time;durP1;ratioP1;P1;durP2;ratioP2;P2;SDS_P1;SDS_P2;PMS_P1;PMS_P2;Temp;Humidity;BMP_temperature;BMP_pressure;BME280_temperature;BME280_humidity;BME280_pressure;Samples;Min_cycle;Max_cycle;Signal;HPM_P1;HPM_P2
2023/06/03 00:01:59;;;;;;;4.40;1.65;;;;;;;;;;5048691;28;20052;-80
2023/06/03 00:04:28;;;;;;;;;;;;;;;;;;5047849;28;20059;-81
2023/06/03 00:06:54;;;;;;;4.15;1.50;;;;;;;;;;5038771;28;20393;-81
2023/06/03 00:09:20;;;;;;;;;;;;;;;;;;5040960;28;20447;-81
2023/06/03 00:11:46;;;;;;;6.28;1.50;;;;;;;;;;5045549;28;20014;-81
2023/06/03 00:14:12;;;;;;;;;;;;;;;;;;5032426;28;20076;-81
2023/06/03 00:16:38;;;;;;;3.13;1.17;;;;;;;;;;5048634;28;20026;-81
2023/06/03 00:19:04;;;;;;;4.97;1.50;;;;;;;;;;5047840;28;20501;-81
2023/06/03 00:21:30;;;;;;;;;;;;;;;;;;5049218;28;20506;-80
2023/06/03 00:23:56;;;;;;;2.72;1.35;;;;;;;;;;5049381;28;19964;-81
2023/06/03 00:26:22;;;;;;;;;;;;;;;;;;5054296;28;20049;-81
2023/06/03 00:28:50;;;;;;;3.65;1.40;;;;;;;;;;5052007;28;19931;-81
2023/06/03 00:31:16;;;;;;;4.15;1.40;;;;;;;;;;5052650;28;20051;-81
2023/06/03 00:33:42;;;;;;;;;;;;;;;;;;5048332;28;20053;-80
2023/06/03 00:36:08;;;;;;;2.90;1.20;;;;;;;;;;5051887;28;19979;-80
2023/06/03 00:38:34;;;;;;;;;;;;;;;;;;5052724;28;20136;-80
2023/06/03 00:41:00;;;;;;;4.00;1.30;;;;;;;;;;5036124;28;20007;-81
2023/06/03 00:43:26;;;;;;;4.63;1.40;;;;;;;;;;5052603;28;20136;-81
2023/06/03 00:45:52;;;;;;;8.65;1.50;;;;;;;;;;5053059;28;20276;-81
2023/06/03 00:48:18;;;;;;;4.03;1.30;;;;;;;;;;5052729;28;20041;-81
2023/06/03 00:50:44;;;;;;;5.40;1.38;;;;;;;;;;5051514;28;20053;-81
2023/06/03 00:53:10;;;;;;;;;;;;;;;;;;5054240;28;20041;-81
2023/06/03 00:55:37;;;;;;;3.92;1.10;;;;;;;;;;5037304;28;19921;-81
2023/06/03 00:58:04;;;;;;;3.47;1.27;;;;;;;;;;5039033;28;20056;-81
2023/06/03 01:00:30;;;;;;;3.88;1.30;;;;;;;;;;5066016;28;20042;-81
2023/06/03 01:02:56;;;;;;;1.75;1.02;;;;;;;;;;5030632;28;20655;-81
2023/06/03 01:05:23;;;;;;;3.22;1.45;;;;;;;;;;5065326;28;20058;-81
2023/06/03 01:08:04;;;;;;;4.15;1.05;;;;;;;;;;5065378;28;20049;-81
2023/06/03 01:10:49;;;;;;;2.38;1.20;;;;;;;;;;5049481;28;20044;-81
2023/06/03 01:13:18;;;;;;;4.78;1.27;;;;;;;;;;5046168;28;20045;-80
2023/06/03 01:15:45;;;;;;;3.40;1.20;;;;;;;;;;5053035;28;20445;-81
2023/06/03 01:18:14;;;;;;;2.35;1.20;;;;;;;;;;5052380;28;20095;-81
2023/06/03 01:20:42;;;;;;;5.40;1.30;;;;;;;;;;5034423;28;20095;-81
2023/06/03 01:23:21;;;;;;;2.38;1.20;;;;;;;;;;5081666;28;20500;-81
2023/06/03 01:25:50;;;;;;;3.60;1.30;;;;;;;;;;5051626;28;20060;-81
2023/06/03 01:28:17;;;;;;;3.35;1.45;;;;;;;;;;5065712;28;20049;-81
2023/06/03 01:30:43;;;;;;;5.90;1.50;;;;;;;;;;5065138;28;20049;-80
2023/06/03 01:33:09;;;;;;;4.28;1.50;;;;;;;;;;5066302;28;20079;-81
2023/06/03 01:35:36;;;;;;;4.57;1.60;;;;;;;;;;5050867;28;20057;-81
2023/06/03 01:38:02;;;;;;;2.50;1.50;;;;;;;;;;5053028;28;20044;-81
2023/06/03 01:40:29;;;;;;;4.25;1.75;;;;;;;;;;5053284;28;20136;-81
2023/06/03 01:42:55;;;;;;;;;;;;;;;;;;5050613;28;20048;-81
2023/06/03 01:45:21;;;;;;;2.03;1.50;;;;;;;;;;5052006;28;19921;-81
2023/06/03 01:47:47;;;;;;;;;;;;;;;;;;5052047;28;20132;-81
2023/06/03 01:50:13;;;;;;;4.00;1.60;;;;;;;;;;5051055;28;20023;-81
2023/06/03 01:52:39;;;;;;;4.63;1.70;;;;;;;;;;5052554;28;20048;-79
2023/06/03 01:55:05;;;;;;;3.67;1.58;;;;;;;;;;5051603;28;20045;-81
2023/06/03 01:57:31;;;;;;;2.65;1.42;;;;;;;;;;5024192;28;20046;-81
2023/06/03 01:59:57;;;;;;;3.90;1.60;;;;;;;;;;5064410;28;20045;-81
2023/06/03 02:02:23;;;;;;;3.85;1.60;;;;;;;;;;5031475;28;20157;-80
2023/06/03 02:04:51;;;;;;;4.03;1.55;;;;;;;;;;5046772;28;20136;-81
2023/06/03 02:07:17;;;;;;;2.40;1.40;;;;;;;;;;5065109;28;20049;-81
2023/06/03 02:09:45;;;;;;;3.25;1.73;;;;;;;;;;5033271;28;20050;-80
2023/06/03 02:12:11;;;;;;;6.78;1.60;;;;;;;;;;5043205;28;20057;-80
2023/06/03 02:14:37;;;;;;;2.58;1.23;;;;;;;;;;5031091;28;20089;-80
2023/06/03 02:17:04;;;;;;;4.15;1.60;;;;;;;;;;5064029;28;20057;-80
2023/06/03 02:19:30;;;;;;;3.85;1.70;;;;;;;;;;5062800;28;20046;-80
2023/06/03 02:21:57;;;;;;;3.50;1.60;;;;;;;;;;5064231;28;20055;-80
2023/06/03 02:24:23;;;;;;;5.57;1.50;;;;;;;;;;5064633;28;20067;-81
2023/06/03 02:26:49;;;;;;;;;;;;;;;;;;5046028;28;20058;-80
2023/06/03 02:29:23;;;;;;;4.60;1.70;;;;;;;;;;5050876;28;19978;-80
2023/06/03 02:31:52;;;;;;;2.47;1.33;;;;;;;;;;5051949;28;20390;-80
2023/06/03 02:34:19;;;;;;;2.42;1.60;;;;;;;;;;5034982;28;20107;-81
2023/06/03 02:36:46;;;;;;;2.65;1.40;;;;;;;;;;5071745;28;20041;-79
2023/06/03 02:39:12;;;;;;;3.75;1.58;;;;;;;;;;5050780;28;20053;-80
2023/06/03 02:41:38;;;;;;;;;;;;;;;;;;5052481;28;20083;-80
2023/06/03 02:44:04;;;;;;;5.60;1.60;;;;;;;;;;5049642;28;19924;-80
2023/06/03 02:46:31;;;;;;;6.38;2.08;;;;;;;;;;5045326;28;20445;-80
2023/06/03 02:48:57;;;;;;;6.28;1.80;;;;;;;;;;5065499;28;20094;-80
2023/06/03 02:51:23;;;;;;;;;;;;;;;;;;5036783;28;20051;-81
2023/06/03 02:53:50;;;;;;;6.85;1.50;;;;;;;;;;5029567;28;19925;-80
2023/06/03 02:56:16;;;;;;;3.13;1.40;;;;;;;;;;5032883;28;20053;-80
2023/06/03 02:58:42;;;;;;;4.70;1.58;;;;;;;;;;5050354;28;20053;-80
2023/06/03 03:01:08;;;;;;;;;;;;;;;;;;5050327;28;20052;-80
2023/06/03 03:03:35;;;;;;;2.20;1.38;;;;;;;;;;5046905;28;19924;-80
2023/06/03 03:06:06;;;;;;;3.67;1.50;;;;;;;;;;5030217;28;20065;-80
2023/06/03 03:08:33;;;;;;;2.78;1.25;;;;;;;;;;5063579;28;20049;-80
2023/06/03 03:10:59;;;;;;;3.17;1.52;;;;;;;;;;5050935;28;20057;-80
2023/06/03 03:13:25;;;;;;;4.20;1.48;;;;;;;;;;5050269;28;20053;-80
2023/06/03 03:15:51;;;;;;;2.65;1.40;;;;;;;;;;5050364;28;20506;-80
2023/06/03 03:18:17;;;;;;;;;;;;;;;;;;5049335;28;20063;-80
2023/06/03 03:20:43;;;;;;;3.03;1.35;;;;;;;;;;5049381;28;19920;-80
2023/06/03 03:23:09;;;;;;;;;;;;;;;;;;5045290;28;20486;-80
2023/06/03 03:25:36;;;;;;;3.83;1.00;;;;;;;;;;5049862;28;19932;-80
2023/06/03 03:28:02;;;;;;;5.82;1.40;;;;;;;;;;5049306;28;20049;-80
2023/06/03 03:30:28;;;;;;;4.10;1.20;;;;;;;;;;5050992;28;20420;-80
2023/06/03 03:32:58;;;;;;;10.05;1.42;;;;;;;;;;5048411;28;20052;-80
2023/06/03 03:35:24;;;;;;;4.07;1.55;;;;;;;;;;5049180;28;20056;-80
2023/06/03 03:37:56;;;;;;;5.65;1.50;;;;;;;;;;5048895;28;20519;-79
2023/06/03 03:40:22;;;;;;;3.38;1.50;;;;;;;;;;5049999;28;20045;-80
2023/06/03 03:42:49;;;;;;;2.72;1.40;;;;;;;;;;5045363;28;20041;-79
2023/06/03 03:45:17;;;;;;;4.55;2.42;;;;;;;;;;5049799;28;20099;-80
2023/06/03 03:47:43;;;;;;;3.72;1.30;;;;;;;;;;5028911;28;20053;-80
2023/06/03 03:50:24;;;;;;;3.58;1.45;;;;;;;;;;5029239;28;20102;-80
2023/06/03 03:52:50;;;;;;;6.72;1.70;;;;;;;;;;5030652;28;20037;-79
2023/06/03 03:55:16;;;;;;;5.18;1.60;;;;;;;;;;5043449;28;20052;-80
2023/06/03 03:57:42;;;;;;;4.63;1.70;;;;;;;;;;5050260;28;20053;-80
2023/06/03 04:00:09;;;;;;;;;;;;;;;;;;5049419;28;20579;-80
2023/06/03 04:02:41;;;;;;;5.55;1.70;;;;;;;;;;5048109;28;19920;-80
2023/06/03 04:05:13;;;;;;;4.28;1.60;;;;;;;;;;5049273;28;20056;-80
2023/06/03 04:07:40;;;;;;;4.35;1.50;;;;;;;;;;5036111;28;20469;-80
2023/06/03 04:10:11;;;;;;;2.50;1.42;;;;;;;;;;5032547;28;20049;-80
2023/06/03 04:12:37;;;;;;;3.83;1.73;;;;;;;;;;5046118;28;20049;-80
2023/06/03 04:15:03;;;;;;;;;;;;;;;;;;5062868;28;20100;-80
2023/06/03 04:17:30;;;;;;;2.85;1.40;;;;;;;;;;5061898;28;19927;-80
2023/06/03 04:20:00;;;;;;;5.28;1.80;;;;;;;;;;5044567;28;20061;-80
2023/06/03 04:22:26;;;;;;;2.72;1.60;;;;;;;;;;5062841;28;20053;-80
2023/06/03 04:24:52;;;;;;;;;;;;;;;;;;5063249;28;20052;-80
2023/06/03 04:27:18;;;;;;;5.10;1.75;;;;;;;;;;5062644;28;19926;-80
2023/06/03 04:29:45;;;;;;;4.25;1.70;;;;;;;;;;5029168;28;20410;-80
2023/06/03 04:32:11;;;;;;;2.72;1.60;;;;;;;;;;5063989;28;20172;-80
2023/06/03 04:34:48;;;;;;;1.77;1.30;;;;;;;;;;5031161;28;20061;-80
2023/06/03 04:37:14;;;;;;;4.28;1.60;;;;;;;;;;5037021;28;20049;-80
2023/06/03 04:39:40;;;;;;;3.53;1.60;;;;;;;;;;5062579;28;20573;-80
2023/06/03 04:42:07;;;;;;;5.55;1.60;;;;;;;;;;5045580;28;20052;-80
2023/06/03 04:44:34;;;;;;;2.88;1.35;;;;;;;;;;5062298;28;20057;-80
2023/06/03 04:47:00;;;;;;;3.47;1.65;;;;;;;;;;5061711;28;20487;-79
2023/06/03 04:49:27;;;;;;;6.50;1.70;;;;;;;;;;5061150;28;20049;-80
2023/06/03 04:51:53;;;;;;;5.28;1.75;;;;;;;;;;5049393;28;20520;-80
2023/06/03 04:54:23;;;;;;;;;;;;;;;;;;5050245;28;20049;-80
2023/06/03 04:56:50;;;;;;;4.45;1.60;;;;;;;;;;5048448;28;19963;-80
2023/06/03 04:59:16;;;;;;;4.93;1.85;;;;;;;;;;5048915;28;20660;-80
2023/06/03 05:01:44;;;;;;;;;;;;;;;;;;5082156;28;20052;-80
2023/06/03 05:04:13;;;;;;;2.97;1.42;;;;;;;;;;5045594;28;19920;-80
2023/06/03 05:06:40;;;;;;;3.92;1.67;;;;;;;;;;5049995;28;20132;-80
2023/06/03 05:09:09;;;;;;;5.72;2.03;;;;;;;;;;5042085;28;20049;-80
2023/06/03 05:11:35;;;;;;;3.17;1.67;;;;;;;;;;5078901;28;20049;-80
2023/06/03 05:14:01;;;;;;;;;;;;;;;;;;5053367;28;20055;-80
2023/06/03 05:16:27;;;;;;;2.08;1.40;;;;;;;;;;5053797;28;20007;-80
2023/06/03 05:18:53;;;;;;;3.03;1.50;;;;;;;;;;5051950;28;20051;-80
2023/06/03 05:21:19;;;;;;;5.40;1.60;;;;;;;;;;5052600;28;20084;-80
2023/06/03 05:23:46;;;;;;;3.35;1.70;;;;;;;;;;5034625;28;20080;-80
2023/06/03 05:26:12;;;;;;;4.43;1.48;;;;;;;;;;5065385;28;20091;-80
2023/06/03 05:28:38;;;;;;;3.45;1.58;;;;;;;;;;5070700;28;20055;-80
2023/06/03 05:31:04;;;;;;;3.60;1.60;;;;;;;;;;5051759;28;20091;-80
2023/06/03 05:33:31;;;;;;;3.03;1.40;;;;;;;;;;5051457;28;20048;-80
2023/06/03 05:35:57;;;;;;;2.85;1.35;;;;;;;;;;5051329;28;20102;-79
2023/06/03 05:38:23;;;;;;;4.65;1.30;;;;;;;;;;5064985;28;20060;-79
2023/06/03 05:40:50;;;;;;;1.45;1.05;;;;;;;;;;5079667;28;20084;-80
2023/06/03 05:43:16;;;;;;;4.30;1.20;;;;;;;;;;5034731;28;20414;-80
2023/06/03 05:45:42;;;;;;;;;;;;;;;;;;5053422;28;20049;-80
2023/06/03 05:48:09;;;;;;;6.22;1.25;;;;;;;;;;5034504;28;20373;-80
2023/06/03 05:50:39;;;;;;;2.00;1.20;;;;;;;;;;5031758;28;20460;-80
2023/06/03 05:53:05;;;;;;;2.78;1.40;;;;;;;;;;5064531;28;20459;-80
2023/06/03 05:55:32;;;;;;;4.72;1.35;;;;;;;;;;5048987;28;20049;-80
2023/06/03 05:57:58;;;;;;;5.18;1.20;;;;;;;;;;5051381;28;20402;-80
2023/06/03 06:00:24;;;;;;;1.23;0.88;;;;;;;;;;5052307;28;20045;-80
2023/06/03 06:02:50;;;;;;;;;;;;;;;;;;5034462;28;20061;-80
2023/06/03 06:05:16;;;;;;;2.85;1.38;;;;;;;;;;5033724;28;20079;-80
2023/06/03 06:07:42;;;;;;;2.20;1.13;;;;;;;;;;5051430;28;20059;-80
2023/06/03 06:10:09;;;;;;;3.28;1.30;;;;;;;;;;5046482;28;20049;-80
2023/06/03 06:12:35;;;;;;;3.30;1.30;;;;;;;;;;5065974;28;20045;-80
2023/06/03 06:15:01;;;;;;;5.63;1.30;;;;;;;;;;5035409;28;20111;-80
2023/06/03 06:17:27;;;;;;;3.20;1.23;;;;;;;;;;5063617;28;20049;-80
2023/06/03 06:19:53;;;;;;;3.03;1.10;;;;;;;;;;5046321;28;20056;-80
2023/06/03 06:22:19;;;;;;;3.78;1.27;;;;;;;;;;5050973;28;20045;-80
2023/06/03 06:24:45;;;;;;;;;;;;;;;;;;5042403;28;20182;-80
2023/06/03 06:27:11;;;;;;;2.67;1.30;;;;;;;;;;5064204;28;19972;-81
2023/06/03 06:29:37;;;;;;;2.15;1.20;;;;;;;;;;5047442;28;20060;-80
2023/06/03 06:32:06;;;;;;;2.13;1.10;;;;;;;;;;5032113;28;20054;-79
2023/06/03 06:34:34;;;;;;;4.38;1.25;;;;;;;;;;5073924;28;20059;-80
2023/06/03 06:37:00;;;;;;;3.17;1.40;;;;;;;;;;5041928;28;20755;-80
2023/06/03 06:39:46;;;;;;;3.83;1.50;;;;;;;;;;5063530;28;20053;-80
2023/06/03 06:42:13;;;;;;;5.25;1.17;;;;;;;;;;5063708;28;20063;-80
2023/06/03 06:44:46;;;;;;;1.45;1.00;;;;;;;;;;5049400;28;20080;-80
2023/06/03 06:47:15;;;;;;;1.77;1.00;;;;;;;;;;5066511;28;20106;-80
2023/06/03 06:49:41;;;;;;;3.88;1.25;;;;;;;;;;5082308;28;20064;-80
2023/06/03 06:52:09;;;;;;;4.28;1.25;;;;;;;;;;5033857;28;20057;-80
2023/06/03 06:54:35;;;;;;;3.15;1.40;;;;;;;;;;5050521;28;20057;-81
2023/06/03 06:57:01;;;;;;;;;;;;;;;;;;5052096;28;20055;-80
2023/06/03 06:59:27;;;;;;;2.70;1.20;;;;;;;;;;5029619;28;20357;-82
2023/06/03 07:01:53;;;;;;;;;;;;;;;;;;5040500;28;20110;-82
2023/06/03 07:04:20;;;;;;;5.43;1.20;;;;;;;;;;5034225;28;19929;-89
2023/06/03 07:06:45;;;;;;;;;;;;;;;;;;5064473;28;20580;-86
2023/06/03 07:09:12;;;;;;;2.63;1.10;;;;;;;;;;5062874;28;19925;-85
2023/06/03 07:11:44;;;;;;;5.45;1.10;;;;;;;;;;5031606;28;20049;-87
2023/06/03 07:14:10;;;;;;;7.47;1.25;;;;;;;;;;5073733;28;20068;-88
2023/06/03 07:16:36;;;;;;;2.20;0.88;;;;;;;;;;5078109;28;20525;-87
2023/06/03 07:19:04;;;;;;;2.25;1.00;;;;;;;;;;5015617;28;20048;-86
2023/06/03 07:21:30;;;;;;;2.75;1.20;;;;;;;;;;5029904;28;20056;-87
2023/06/03 07:23:56;;;;;;;;;;;;;;;;;;5024321;28;20041;-87
2023/06/03 07:26:27;;;;;;;1.38;1.08;;;;;;;;;;5039673;28;20489;-88
2023/06/03 07:28:56;;;;;;;3.47;1.20;;;;;;;;;;5063186;28;20067;-86
2023/06/03 07:31:22;;;;;;;2.55;1.10;;;;;;;;;;5030709;28;20053;-85
2023/06/03 07:33:53;;;;;;;3.65;1.20;;;;;;;;;;5061288;28;20061;-86
2023/06/03 07:36:20;;;;;;;2.35;1.05;;;;;;;;;;5062467;28;20064;-87
2023/06/03 07:38:57;;;;;;;2.40;1.08;;;;;;;;;;5046077;28;20052;-87
2023/06/03 07:41:43;;;;;;;3.58;1.40;;;;;;;;;;5049621;28;20075;-87
2023/06/03 07:44:14;;;;;;;1.30;0.85;;;;;;;;;;5046470;28;20075;-85
2023/06/03 07:46:55;;;;;;;2.65;1.00;;;;;;;;;;5031494;28;20048;-88
2023/06/03 07:49:22;;;;;;;2.30;0.90;;;;;;;;;;5071001;28;20637;-88
2023/06/03 07:51:49;;;;;;;2.67;1.00;;;;;;;;;;5049989;28;20052;-86
2023/06/03 07:54:16;;;;;;;4.60;1.20;;;;;;;;;;5034225;28;20491;-87
2023/06/03 07:56:42;;;;;;;1.98;1.00;;;;;;;;;;5053834;28;20049;-87
2023/06/03 07:59:15;;;;;;;2.92;1.00;;;;;;;;;;5049786;28;20704;-82
2023/06/03 08:01:42;;;;;;;1.98;0.88;;;;;;;;;;5049602;28;20037;-81
2023/06/03 08:04:22;;;;;;;1.15;0.93;;;;;;;;;;5076810;28;20127;-82
2023/06/03 08:06:52;;;;;;;3.45;1.10;;;;;;;;;;5044472;28;20410;-86
2023/06/03 08:09:35;;;;;;;3.35;0.90;;;;;;;;;;5065101;28;20061;-83
2023/06/03 08:12:03;;;;;;;1.88;0.90;;;;;;;;;;5049709;28;20053;-84
2023/06/03 08:14:30;;;;;;;4.85;0.98;;;;;;;;;;5043206;28;20858;-83
2023/06/03 08:16:57;;;;;;;2.40;0.90;;;;;;;;;;5063020;28;20095;-83
2023/06/03 08:19:23;;;;;;;1.23;1.02;;;;;;;;;;5026945;28;20128;-75
2023/06/03 08:21:50;;;;;;;;;;;;;;;;;;5031097;28;20046;-84
2023/06/03 08:24:16;;;;;;;1.52;0.80;;;;;;;;;;5067574;28;19948;-82
2023/06/03 08:26:46;;;;;;;3.05;0.80;;;;;;;;;;5046253;28;20051;-88
2023/06/03 08:29:12;;;;;;;3.67;1.08;;;;;;;;;;5047755;28;20486;-83
2023/06/03 08:31:39;;;;;;;1.77;0.95;;;;;;;;;;5048405;28;20045;-86
2023/06/03 08:34:04;;;;;;;;;;;;;;;;;;5048271;28;20128;-83
2023/06/03 08:36:32;;;;;;;4.43;1.20;;;;;;;;;;5047494;28;19921;-85
2023/06/03 08:38:59;;;;;;;6.07;1.02;;;;;;;;;;5048105;28;20052;-86
2023/06/03 08:41:38;;;;;;;2.10;0.93;;;;;;;;;;5031185;28;20041;-84
2023/06/03 08:44:10;;;;;;;4.28;1.10;;;;;;;;;;5041613;28;20087;-88
2023/06/03 08:46:46;;;;;;;1.90;1.00;;;;;;;;;;5032462;28;20056;-86
2023/06/03 08:49:16;;;;;;;4.50;0.95;;;;;;;;;;5049709;28;20410;-81
2023/06/03 08:51:43;;;;;;;3.67;1.10;;;;;;;;;;5051946;28;20114;-85
2023/06/03 08:54:13;;;;;;;3.10;0.98;;;;;;;;;;5051750;28;20052;-85
2023/06/03 08:56:43;;;;;;;1.27;0.80;;;;;;;;;;5051589;28;20065;-85
2023/06/03 08:59:09;;;;;;;1.58;0.88;;;;;;;;;;5065738;28;20441;-85
2023/06/03 09:01:37;;;;;;;1.35;0.98;;;;;;;;;;5051389;28;20150;-85
2023/06/03 09:04:04;;;;;;;0.95;0.63;;;;;;;;;;5050109;28;20060;-83
2023/06/03 09:06:30;;;;;;;2.08;1.08;;;;;;;;;;5064922;28;20065;-86
2023/06/03 09:08:57;;;;;;;1.75;1.27;;;;;;;;;;5024124;28;20060;-87
2023/06/03 09:11:25;;;;;;;2.63;0.98;;;;;;;;;;5047209;28;20402;-85
2023/06/03 09:13:54;;;;;;;2.10;1.00;;;;;;;;;;5085520;28;20057;-85
2023/06/03 09:16:21;;;;;;;2.22;0.85;;;;;;;;;;5067933;28;20045;-85
2023/06/03 09:18:49;;;;;;;2.05;1.00;;;;;;;;;;5050819;28;20183;-84
2023/06/03 09:21:16;;;;;;;1.98;1.10;;;;;;;;;;5085559;28;20049;-82
2023/06/03 09:23:43;;;;;;;2.38;0.82;;;;;;;;;;5035465;28;20087;-84
2023/06/03 09:26:09;;;;;;;6.68;1.10;;;;;;;;;;5032761;28;20072;-86
2023/06/03 09:28:35;;;;;;;3.30;1.05;;;;;;;;;;5017342;28;20269;-86
2023/06/03 09:31:01;;;;;;;;;;;;;;;;;;5035818;28;20132;-86
2023/06/03 09:33:27;;;;;;;2.05;1.00;;;;;;;;;;5068090;28;20612;-86
2023/06/03 09:36:10;;;;;;;5.00;1.20;;;;;;;;;;5065455;28;20053;-86
2023/06/03 09:38:56;;;;;;;1.90;0.90;;;;;;;;;;5049961;28;20057;-82
2023/06/03 09:41:29;;;;;;;1.55;1.00;;;;;;;;;;5050622;28;20041;-86
2023/06/03 09:44:01;;;;;;;3.40;1.10;;;;;;;;;;5035030;28;20041;-86
2023/06/03 09:46:29;;;;;;;53.67;5.07;;;;;;;;;;5034856;28;20071;-83
2023/06/03 09:48:55;;;;;;;20.35;1.98;;;;;;;;;;5050148;28;20136;-73
2023/06/03 09:51:27;;;;;;;4.35;1.20;;;;;;;;;;5047978;28;20134;-87
2023/06/03 09:54:09;;;;;;;6.63;1.50;;;;;;;;;;5049397;28;20052;-82
2023/06/03 09:56:35;;;;;;;2.10;1.00;;;;;;;;;;5083074;28;20045;-88
2023/06/03 09:59:01;;;;;;;;;;;;;;;;;;5035273;28;20088;-89
2023/06/03 10:01:33;;;;;;;5.05;1.35;;;;;;;;;;5050859;28;20022;-83
2023/06/03 10:04:00;;;;;;;3.92;1.33;;;;;;;;;;5050665;28;20119;-83
2023/06/03 10:06:26;;;;;;;3.30;0.90;;;;;;;;;;5045705;28;20046;-85
2023/06/03 10:08:52;;;;;;;2.35;0.88;;;;;;;;;;5064825;28;20072;-84
2023/06/03 10:11:18;;;;;;;1.73;0.80;;;;;;;;;;5032681;28;20433;-80
2023/06/03 10:13:44;;;;;;;;;;;;;;;;;;5003828;28;20092;-83
2023/06/03 10:16:11;;;;;;;7.43;1.17;;;;;;;;;;5031656;28;20042;-83
2023/06/03 10:18:38;;;;;;;1.20;0.73;;;;;;;;;;5030006;28;20049;-85
2023/06/03 10:21:08;;;;;;;3.28;1.00;;;;;;;;;;5030045;28;20053;-86
2023/06/03 10:23:37;;;;;;;1.90;0.93;;;;;;;;;;5030221;28;20077;-86
2023/06/03 10:26:03;;;;;;;4.18;1.70;;;;;;;;;;5030812;28;20052;-81
2023/06/03 10:28:31;;;;;;;1.88;0.82;;;;;;;;;;5030457;28;20510;-81
2023/06/03 10:30:57;;;;;;;2.25;1.05;;;;;;;;;;5030967;28;20147;-86
2023/06/03 10:33:24;;;;;;;20.17;1.48;;;;;;;;;;5029266;28;20493;-85
2023/06/03 10:35:50;;;;;;;5.78;1.17;;;;;;;;;;5043661;28;20041;-85
2023/06/03 10:38:16;;;;;;;;;;;;;;;;;;5015090;28;20049;-84
2023/06/03 10:40:42;;;;;;;3.78;1.20;;;;;;;;;;5047034;28;19927;-83
2023/06/03 10:43:10;;;;;;;1.80;1.00;;;;;;;;;;5063600;28;20124;-84
2023/06/03 10:45:36;;;;;;;3.45;1.05;;;;;;;;;;5030457;28;20104;-81
2023/06/03 10:48:10;;;;;;;1.70;0.95;;;;;;;;;;5049815;28;20084;-86
2023/06/03 10:51:06;;;;;;;4.53;1.00;;;;;;;;;;5030519;28;20458;-84
2023/06/03 10:53:49;;;;;;;4.10;1.20;;;;;;;;;;5029475;28;20095;-85
2023/06/03 10:56:34;;;;;;;3.85;1.10;;;;;;;;;;5045948;28;20061;-80
2023/06/03 10:59:05;;;;;;;3.15;1.10;;;;;;;;;;5047106;28;20061;-88
2023/06/03 11:01:50;;;;;;;2.65;1.00;;;;;;;;;;5030417;28;20053;-82
2023/06/03 11:04:17;;;;;;;2.15;1.00;;;;;;;;;;5040711;28;20164;-88
2023/06/03 11:06:43;;;;;;;2.28;0.93;;;;;;;;;;5050440;28;20048;-89
2023/06/03 11:09:12;;;;;;;;;;;;;;;;;;5046859;28;20049;-89
2023/06/03 11:11:42;;;;;;;2.63;1.17;;;;;;;;;;5030748;28;19982;-90
2023/06/03 11:14:11;;;;;;;1.00;0.90;;;;;;;;;;5031095;28;20046;-84
2023/06/03 11:16:56;;;;;;;2.95;0.90;;;;;;;;;;5048742;28;20053;-85
2023/06/03 11:19:31;;;;;;;6.28;1.52;;;;;;;;;;5049798;28;20132;-88
2023/06/03 11:21:58;;;;;;;2.95;1.10;;;;;;;;;;5048587;28;20049;-84
2023/06/03 11:24:39;;;;;;;4.28;1.10;;;21.30;49.70;;;;;;5049948;28;20111;-84
2023/06/03 11:27:12;;;;;;;5.38;1.20;;;21.40;50.10;;;;;;5050060;28;20053;-84
2023/06/03 11:29:47;;;;;;;3.92;0.95;;;21.70;50.20;;;;;;5050452;28;20053;-80
2023/06/03 11:32:21;;;;;;;3.35;0.90;;;22.00;50.20;;;;;;5050313;28;20053;-87
2023/06/03 11:34:49;;;;;;;1.35;1.00;;;22.50;48.50;;;;;;5048349;28;20056;-85
2023/06/03 11:37:17;;;;;;;3.58;1.10;;;;;;;;;;5038801;28;20071;-88
2023/06/03 11:40:17;;;;;;;2.70;1.00;;;;;;;;;;5072591;28;20454;-87
2023/06/03 11:42:46;;;;;;;2.50;1.00;;;;;;;;;;5045061;28;20557;-87
2023/06/03 11:45:24;;;;;;;2.03;1.00;;;;;;;;;;5051484;28;20055;-90
2023/06/03 11:47:54;;;;;;;4.78;1.10;;;;;;;;;;5049227;28;20049;-86
2023/06/03 11:50:21;;;;;;;2.47;0.90;;;;;;;;;;5049975;28;20053;-81
2023/06/03 11:52:47;;;;;;;2.13;0.90;;;;;;;;;;5033055;28;20094;-79
2023/06/03 11:55:23;;;;;;;2.55;0.90;;;;;;;;;;5046556;28;20049;-83
2023/06/03 11:57:50;;;;;;;2.97;1.17;;;;;;;;;;5035815;28;20045;-86
2023/06/03 12:00:16;;;;;;;2.78;0.80;;;;;;;;;;5047832;28;20072;-85
2023/06/03 12:02:46;;;;;;;1.55;0.88;;;;;;;;;;5081381;28;20045;-92
2023/06/03 12:05:12;;;;;;;2.75;0.70;;;;;;;;;;5083040;28;20052;-91
2023/06/03 12:07:39;;;;;;;3.15;0.93;;;;;;;;;;5050323;28;20108;-93
2023/06/03 12:10:05;;;;;;;2.33;0.90;;;;;;;;;;5050333;28;20059;-92
2023/06/03 12:12:31;;;;;;;3.72;1.08;;;;;;;;;;5032825;28;20079;-89
2023/06/03 12:15:05;;;;;;;3.45;1.08;;;;;;;;;;5050328;28;20041;-91
2023/06/03 12:17:31;;;;;;;3.50;1.10;;;;;;;;;;5032493;28;20390;-85
2023/06/03 12:19:57;;;;;;;1.77;0.90;;;;;;;;;;5052129;28;20094;-91
2023/06/03 12:22:25;;;;;;;1.73;0.77;;;;;;;;;;5053071;28;20116;-92
2023/06/03 12:24:51;;;;;;;4.45;0.98;;;;;;;;;;5053915;28;20101;-92
2023/06/03 12:27:21;;;;;;;1.52;0.80;;;;;;;;;;5049898;28;20045;-92
2023/06/03 12:29:48;;;;;;;2.45;0.80;;;;;;;;;;5034643;28;20071;-92
2023/06/03 12:32:15;;;;;;;1.67;0.80;;;;;;;;;;5069101;28;20094;-91
2023/06/03 12:34:41;;;;;;;2.22;0.88;;;;;;;;;;5051992;28;20052;-92
2023/06/03 12:37:08;;;;;;;3.13;0.70;;;;;;;;;;5043327;28;20057;-91
2023/06/03 12:39:45;;;;;;;4.82;0.77;;;;;;;;;;5050239;28;20211;-90
2023/06/03 12:42:11;;;;;;;4.00;0.70;;;;;;;;;;5067330;28;20049;-91
2023/06/03 12:44:42;;;;;;;6.03;0.80;;;;;;;;;;5034165;28;20056;-92
2023/06/03 12:47:08;;;;;;;2.15;0.80;;;;;;;;;;5068424;28;20064;-91
2023/06/03 12:49:34;;;;;;;3.53;1.00;;;;;;;;;;5031394;28;20094;-84
2023/06/03 12:52:10;;;;;;;0.88;0.75;;;;;;;;;;5034883;28;20076;-93
2023/06/03 12:54:37;;;;;;;1.77;0.90;;;;;;;;;;5066546;28;20057;-91
2023/06/03 12:57:03;;;;;;;3.22;0.80;;;;;;;;;;5035175;28;20060;-92
2023/06/03 12:59:30;;;;;;;2.38;0.63;;;;;;;;;;5018727;28;20045;-93
2023/06/03 13:01:56;;;;;;;2.17;0.82;;;;;;;;;;5053501;28;20124;-92
2023/06/03 13:04:23;;;;;;;3.83;0.95;;;;;;;;;;5051265;28;20053;-94
2023/06/03 13:06:49;;;;;;;4.03;0.90;;;;;;;;;;5053264;28;20053;-90
2023/06/03 13:09:15;;;;;;;1.75;1.05;;;;;;;;;;5034708;28;20079;-93
2023/06/03 13:11:41;;;;;;;1.40;0.93;;;;;;;;;;5033499;28;20100;-93
2023/06/03 13:14:07;;;;;;;3.60;1.10;;;;;;;;;;5034009;28;20052;-92
2023/06/03 13:16:33;;;;;;;2.80;1.00;;;;;;;;;;5033260;28;20084;-86
2023/06/03 13:18:59;;;;;;;4.70;1.17;;;;;;;;;;5064920;28;20065;-91
2023/06/03 13:21:25;;;;;;;3.63;1.17;;;;;;;;;;5066275;28;20075;-93
2023/06/03 13:23:52;;;;;;;3.10;0.93;;;;;;;;;;5040815;28;20041;-93
2023/06/03 13:26:18;;;;;;;4.75;1.02;;;;;;;;;;5054029;28;20049;-92
2023/06/03 13:28:44;;;;;;;2.47;0.90;;;;;;;;;;5033104;28;20049;-84
2023/06/03 13:31:10;;;;;;;4.97;1.10;;;;;;;;;;5050374;28;20131;-87
2023/06/03 13:33:36;;;;;;;3.05;1.00;;;;;;;;;;5048162;28;20048;-86
2023/06/03 13:36:02;;;;;;;3.08;1.10;;;;;;;;;;5085017;28;20041;-86
2023/06/03 13:38:28;;;;;;;2.13;1.17;;;;;;;;;;5025180;28;20045;-86
2023/06/03 13:40:54;;;;;;;5.20;1.17;;;;;;;;;;5026692;28;20107;-86
2023/06/03 13:43:20;;;;;;;1.63;0.90;;;;;;;;;;5050927;28;20124;-87
2023/06/03 13:45:47;;;;;;;3.38;1.10;;;;;;;;;;5050189;28;20510;-86
2023/06/03 13:48:13;;;;;;;4.13;1.33;;;;;;;;;;5050438;28;20045;-85
2023/06/03 13:50:39;;;;;;;3.75;0.90;;;;;;;;;;5051255;28;20183;-83
2023/06/03 13:53:05;;;;;;;2.92;1.10;;;;;;;;;;5035291;28;20529;-85
2023/06/03 13:55:31;;;;;;;2.63;1.02;;;;;;;;;;5084512;28;20127;-87
2023/06/03 13:57:57;;;;;;;2.22;0.95;;;;;;;;;;5062863;28;20045;-92
2023/06/03 14:00:24;;;;;;;3.28;0.90;;;;;;;;;;5034485;28;20037;-87
2023/06/03 14:02:50;;;;;;;2.90;0.98;;;;;;;;;;5050314;28;20056;-87
2023/06/03 14:05:16;;;;;;;3.08;0.98;;;;;;;;;;5050192;28;20087;-87
2023/06/03 14:07:42;;;;;;;2.85;1.00;;;;;;;;;;5033795;28;20052;-87
2023/06/03 14:10:09;;;;;;;2.97;0.95;;;;;;;;;;5051707;28;20048;-88
2023/06/03 14:12:35;;;;;;;2.50;0.90;;;;;;;;;;5051424;28;20040;-89
2023/06/03 14:15:01;;;;;;;2.25;1.23;;;;;;;;;;5049917;28;20143;-87
2023/06/03 14:17:28;;;;;;;4.45;0.90;;;;;;;;;;5049561;28;20398;-86
2023/06/03 14:19:54;;;;;;;4.78;1.10;;;;;;;;;;5032300;28;20041;-85
2023/06/03 14:22:21;;;;;;;4.85;1.20;;;;;;;;;;5047071;28;20075;-90
2023/06/03 14:24:47;;;;;;;2.60;1.00;;;;;;;;;;5049930;28;20131;-87
2023/06/03 14:27:13;;;;;;;2.22;0.80;;;;;;;;;;5050352;28;20049;-86
2023/06/03 14:29:39;;;;;;;3.88;1.00;;;;;;;;;;5033737;28;20052;-86
2023/06/03 14:32:05;;;;;;;2.10;0.90;;;;;;;;;;5033441;28;20049;-87
2023/06/03 14:34:31;;;;;;;2.67;1.10;;;;;;;;;;5048732;28;20068;-87
2023/06/03 14:36:57;;;;;;;1.70;1.05;;;;;;;;;;5046884;28;20138;-86
2023/06/03 14:39:24;;;;;;;2.75;0.90;;;;;;;;;;5050050;28;20048;-88
2023/06/03 14:41:50;;;;;;;2.17;0.98;;;;;;;;;;5049194;28;20045;-87
2023/06/03 14:44:16;;;;;;;4.22;1.10;;;;;;;;;;5048701;28;20049;-88
2023/06/03 14:46:42;;;;;;;2.70;1.10;;;;;;;;;;5042378;28;20064;-87
2023/06/03 14:49:08;;;;;;;2.03;0.90;;;;;;;;;;5030969;28;20053;-85
2023/06/03 14:51:34;;;;;;;2.58;1.00;;;;;;;;;;5049790;28;20076;-86
2023/06/03 14:54:01;;;;;;;1.33;0.90;;;;;;;;;;5050274;28;20111;-86
2023/06/03 14:56:27;;;;;;;2.30;0.88;;;;;;;;;;5050047;28;20041;-85
2023/06/03 14:58:53;;;;;;;2.15;1.00;;;;;;;;;;5049172;28;20041;-86